sensor_id;sensor_type;location;lat;lon;timestamp;P1;durP1;ratioP1;P2;durP2;ratioP2
5052;SDS011;2545;50.892;5.740;2024-03-08T00:01:01;31.00;;;15.90;;
5052;SDS011;2545;50.892;5.740;2024-03-08T00:03:26;32.10;;;16.90;;
5052;SDS011;2545;50.892;5.740;2024-03-08T00:05:54;44.33;;;15.50;;
5052;SDS011;2545;50.892;5.740;2024-03-08T00:08:21;31.43;;;17.67;;
5052;SDS011;2545;50.892;5.740;2024-03-08T00:10:46;32.17;;;15.57;;
5052;SDS011;2545;50.892;5.740;2024-03-08T00:13:12;24.53;;;15.97;;
5052;SDS011;2545;50.892;5.740;2024-03-08T00:15:40;26.50;;;17.13;;
5052;SDS011;2545;50.892;5.740;2024-03-08T00:18:06;28.40;;;16.27;;
5052;SDS011;2545;50.892;5.740;2024-03-08T00:20:32;28.13;;;17.67;;
5052;SDS011;2545;50.892;5.740;2024-03-08T00:22:58;31.17;;;17.73;;
5052;SDS011;2545;50.892;5.740;2024-03-08T00:25:24;29.00;;;17.97;;
5052;SDS011;2545;50.892;5.740;2024-03-08T00:27:50;31.60;;;18.00;;
5052;SDS011;2545;50.892;5.740;2024-03-08T00:30:16;33.10;;;17.53;;
5052;SDS011;2545;50.892;5.740;2024-03-08T00:32:45;27.90;;;16.93;;
5052;SDS011;2545;50.892;5.740;2024-03-08T00:35:11;32.10;;;18.30;;
5052;SDS011;2545;50.892;5.740;2024-03-08T00:37:37;30.23;;;17.57;;
5052;SDS011;2545;50.892;5.740;2024-03-08T00:40:02;25.40;;;16.47;;
5052;SDS011;2545;50.892;5.740;2024-03-08T00:42:29;37.70;;;18.40;;
5052;SDS011;2545;50.892;5.740;2024-03-08T00:44:55;25.53;;;15.30;;
5052;SDS011;2545;50.892;5.740;2024-03-08T00:47:22;27.90;;;15.03;;
5052;SDS011;2545;50.892;5.740;2024-03-08T00:49:49;32.20;;;18.07;;
5052;SDS011;2545;50.892;5.740;2024-03-08T00:52:14;33.50;;;16.67;;
5052;SDS011;2545;50.892;5.740;2024-03-08T00:54:40;30.20;;;17.90;;
5052;SDS011;2545;50.892;5.740;2024-03-08T00:57:05;29.97;;;17.43;;
5052;SDS011;2545;50.892;5.740;2024-03-08T00:59:31;24.70;;;16.57;;
5052;SDS011;2545;50.892;5.740;2024-03-08T01:02:01;22.53;;;15.50;;
5052;SDS011;2545;50.892;5.740;2024-03-08T01:04:27;32.80;;;16.77;;
5052;SDS011;2545;50.892;5.740;2024-03-08T01:06:57;36.60;;;16.63;;
5052;SDS011;2545;50.892;5.740;2024-03-08T01:09:23;27.70;;;16.90;;
5052;SDS011;2545;50.892;5.740;2024-03-08T01:11:49;32.43;;;15.67;;
5052;SDS011;2545;50.892;5.740;2024-03-08T01:14:15;29.60;;;17.00;;
5052;SDS011;2545;50.892;5.740;2024-03-08T01:16:40;28.27;;;16.00;;
5052;SDS011;2545;50.892;5.740;2024-03-08T01:19:06;33.30;;;17.77;;
5052;SDS011;2545;50.892;5.740;2024-03-08T01:21:31;31.53;;;17.07;;
5052;SDS011;2545;50.892;5.740;2024-03-08T01:23:57;29.37;;;16.50;;
5052;SDS011;2545;50.892;5.740;2024-03-08T01:26:22;31.27;;;16.13;;
5052;SDS011;2545;50.892;5.740;2024-03-08T01:28:49;33.83;;;16.50;;
5052;SDS011;2545;50.892;5.740;2024-03-08T01:31:15;28.90;;;17.50;;
5052;SDS011;2545;50.892;5.740;2024-03-08T01:33:41;34.13;;;18.10;;
5052;SDS011;2545;50.892;5.740;2024-03-08T01:36:08;30.73;;;17.03;;
5052;SDS011;2545;50.892;5.740;2024-03-08T01:38:33;32.70;;;16.60;;
5052;SDS011;2545;50.892;5.740;2024-03-08T01:40:59;36.23;;;17.20;;
5052;SDS011;2545;50.892;5.740;2024-03-08T01:43:27;30.50;;;16.90;;
5052;SDS011;2545;50.892;5.740;2024-03-08T01:45:54;27.17;;;16.87;;
5052;SDS011;2545;50.892;5.740;2024-03-08T01:48:26;30.37;;;18.43;;
5052;SDS011;2545;50.892;5.740;2024-03-08T01:51:00;32.70;;;17.17;;
5052;SDS011;2545;50.892;5.740;2024-03-08T01:53:26;29.80;;;18.20;;
5052;SDS011;2545;50.892;5.740;2024-03-08T01:55:54;26.87;;;15.77;;
5052;SDS011;2545;50.892;5.740;2024-03-08T01:58:22;28.20;;;17.70;;
5052;SDS011;2545;50.892;5.740;2024-03-08T02:00:48;27.27;;;16.27;;
5052;SDS011;2545;50.892;5.740;2024-03-08T02:03:16;31.87;;;17.83;;
5052;SDS011;2545;50.892;5.740;2024-03-08T02:05:44;30.70;;;17.17;;
5052;SDS011;2545;50.892;5.740;2024-03-08T02:08:09;31.57;;;15.80;;
5052;SDS011;2545;50.892;5.740;2024-03-08T02:10:44;31.63;;;19.60;;
5052;SDS011;2545;50.892;5.740;2024-03-08T02:13:29;37.70;;;18.10;;
5052;SDS011;2545;50.892;5.740;2024-03-08T02:15:55;34.90;;;18.37;;
5052;SDS011;2545;50.892;5.740;2024-03-08T02:18:25;28.27;;;16.57;;
5052;SDS011;2545;50.892;5.740;2024-03-08T02:20:52;32.63;;;16.97;;
5052;SDS011;2545;50.892;5.740;2024-03-08T02:23:20;33.50;;;18.60;;
5052;SDS011;2545;50.892;5.740;2024-03-08T02:25:46;28.37;;;16.50;;
5052;SDS011;2545;50.892;5.740;2024-03-08T02:28:12;29.47;;;16.73;;
5052;SDS011;2545;50.892;5.740;2024-03-08T02:30:38;29.60;;;16.53;;
5052;SDS011;2545;50.892;5.740;2024-03-08T02:33:07;33.97;;;17.23;;
5052;SDS011;2545;50.892;5.740;2024-03-08T02:35:34;36.20;;;19.13;;
5052;SDS011;2545;50.892;5.740;2024-03-08T02:38:00;29.80;;;15.40;;
5052;SDS011;2545;50.892;5.740;2024-03-08T02:40:26;31.07;;;17.07;;
5052;SDS011;2545;50.892;5.740;2024-03-08T02:42:52;28.63;;;16.90;;
5052;SDS011;2545;50.892;5.740;2024-03-08T02:45:17;28.93;;;16.77;;
5052;SDS011;2545;50.892;5.740;2024-03-08T02:47:43;28.20;;;16.33;;
5052;SDS011;2545;50.892;5.740;2024-03-08T02:50:08;38.73;;;17.57;;
5052;SDS011;2545;50.892;5.740;2024-03-08T02:52:38;33.57;;;17.90;;
5052;SDS011;2545;50.892;5.740;2024-03-08T02:55:03;32.27;;;17.93;;
5052;SDS011;2545;50.892;5.740;2024-03-08T02:57:31;30.87;;;16.63;;
5052;SDS011;2545;50.892;5.740;2024-03-08T02:59:57;30.47;;;17.97;;
5052;SDS011;2545;50.892;5.740;2024-03-08T03:02:24;26.70;;;15.90;;
5052;SDS011;2545;50.892;5.740;2024-03-08T03:04:51;31.20;;;16.83;;
5052;SDS011;2545;50.892;5.740;2024-03-08T03:07:17;25.50;;;15.37;;
5052;SDS011;2545;50.892;5.740;2024-03-08T03:09:42;38.90;;;16.20;;
5052;SDS011;2545;50.892;5.740;2024-03-08T03:12:08;31.27;;;16.93;;
5052;SDS011;2545;50.892;5.740;2024-03-08T03:14:38;31.23;;;17.47;;
5052;SDS011;2545;50.892;5.740;2024-03-08T03:17:04;32.10;;;17.03;;
5052;SDS011;2545;50.892;5.740;2024-03-08T03:19:30;30.03;;;16.63;;
5052;SDS011;2545;50.892;5.740;2024-03-08T03:21:55;30.47;;;16.80;;
5052;SDS011;2545;50.892;5.740;2024-03-08T03:24:21;32.10;;;16.00;;
5052;SDS011;2545;50.892;5.740;2024-03-08T03:26:46;31.53;;;15.83;;
5052;SDS011;2545;50.892;5.740;2024-03-08T03:29:13;30.90;;;17.07;;
5052;SDS011;2545;50.892;5.740;2024-03-08T03:31:40;32.00;;;16.60;;
5052;SDS011;2545;50.892;5.740;2024-03-08T03:34:06;31.53;;;17.73;;
5052;SDS011;2545;50.892;5.740;2024-03-08T03:36:33;41.10;;;16.40;;
5052;SDS011;2545;50.892;5.740;2024-03-08T03:39:00;38.77;;;18.20;;
5052;SDS011;2545;50.892;5.740;2024-03-08T03:41:36;33.13;;;17.40;;
5052;SDS011;2545;50.892;5.740;2024-03-08T03:44:02;34.70;;;16.87;;
5052;SDS011;2545;50.892;5.740;2024-03-08T03:46:27;28.03;;;16.03;;
5052;SDS011;2545;50.892;5.740;2024-03-08T03:48:53;32.93;;;16.47;;
5052;SDS011;2545;50.892;5.740;2024-03-08T03:51:25;36.23;;;17.77;;
5052;SDS011;2545;50.892;5.740;2024-03-08T03:53:51;34.13;;;17.73;;
5052;SDS011;2545;50.892;5.740;2024-03-08T03:56:17;33.60;;;17.40;;
5052;SDS011;2545;50.892;5.740;2024-03-08T03:58:43;34.40;;;16.80;;
5052;SDS011;2545;50.892;5.740;2024-03-08T04:01:09;30.27;;;18.57;;
5052;SDS011;2545;50.892;5.740;2024-03-08T04:03:36;37.17;;;17.13;;
5052;SDS011;2545;50.892;5.740;2024-03-08T04:06:02;35.80;;;17.93;;
5052;SDS011;2545;50.892;5.740;2024-03-08T04:08:29;33.73;;;17.20;;
5052;SDS011;2545;50.892;5.740;2024-03-08T04:10:56;28.60;;;16.67;;
5052;SDS011;2545;50.892;5.740;2024-03-08T04:13:22;32.20;;;17.17;;
5052;SDS011;2545;50.892;5.740;2024-03-08T04:15:47;33.10;;;18.03;;
5052;SDS011;2545;50.892;5.740;2024-03-08T04:18:13;35.03;;;17.57;;
5052;SDS011;2545;50.892;5.740;2024-03-08T04:20:40;31.50;;;15.90;;
5052;SDS011;2545;50.892;5.740;2024-03-08T04:23:07;31.50;;;18.37;;
5052;SDS011;2545;50.892;5.740;2024-03-08T04:25:33;31.27;;;16.60;;
5052;SDS011;2545;50.892;5.740;2024-03-08T04:27:58;35.20;;;17.30;;
5052;SDS011;2545;50.892;5.740;2024-03-08T04:30:24;31.33;;;17.03;;
5052;SDS011;2545;50.892;5.740;2024-03-08T04:32:49;32.57;;;16.60;;
5052;SDS011;2545;50.892;5.740;2024-03-08T04:35:16;30.93;;;15.93;;
5052;SDS011;2545;50.892;5.740;2024-03-08T04:37:42;35.70;;;18.13;;
5052;SDS011;2545;50.892;5.740;2024-03-08T04:40:07;30.60;;;17.43;;
5052;SDS011;2545;50.892;5.740;2024-03-08T04:42:34;31.00;;;17.50;;
5052;SDS011;2545;50.892;5.740;2024-03-08T04:45:02;36.17;;;17.10;;
5052;SDS011;2545;50.892;5.740;2024-03-08T04:47:31;36.70;;;16.87;;
5052;SDS011;2545;50.892;5.740;2024-03-08T04:49:57;30.90;;;15.87;;
5052;SDS011;2545;50.892;5.740;2024-03-08T04:52:23;33.10;;;17.50;;
5052;SDS011;2545;50.892;5.740;2024-03-08T04:54:49;29.00;;;16.20;;
5052;SDS011;2545;50.892;5.740;2024-03-08T04:57:14;37.97;;;18.23;;
5052;SDS011;2545;50.892;5.740;2024-03-08T04:59:39;34.80;;;17.70;;
5052;SDS011;2545;50.892;5.740;2024-03-08T05:02:05;31.87;;;17.60;;
5052;SDS011;2545;50.892;5.740;2024-03-08T05:04:32;29.93;;;16.40;;
5052;SDS011;2545;50.892;5.740;2024-03-08T05:06:58;30.30;;;16.47;;
5052;SDS011;2545;50.892;5.740;2024-03-08T05:09:26;35.97;;;18.07;;
5052;SDS011;2545;50.892;5.740;2024-03-08T05:11:54;34.03;;;17.87;;
5052;SDS011;2545;50.892;5.740;2024-03-08T05:14:19;28.77;;;16.37;;
5052;SDS011;2545;50.892;5.740;2024-03-08T05:16:46;34.93;;;18.07;;
5052;SDS011;2545;50.892;5.740;2024-03-08T05:19:15;32.83;;;16.70;;
5052;SDS011;2545;50.892;5.740;2024-03-08T05:21:44;38.77;;;17.13;;
5052;SDS011;2545;50.892;5.740;2024-03-08T05:24:10;36.23;;;17.00;;
5052;SDS011;2545;50.892;5.740;2024-03-08T05:26:36;36.67;;;17.70;;
5052;SDS011;2545;50.892;5.740;2024-03-08T05:29:04;30.10;;;17.03;;
5052;SDS011;2545;50.892;5.740;2024-03-08T05:31:31;33.80;;;16.73;;
5052;SDS011;2545;50.892;5.740;2024-03-08T05:34:13;36.97;;;17.10;;
5052;SDS011;2545;50.892;5.740;2024-03-08T05:36:39;36.57;;;18.10;;
5052;SDS011;2545;50.892;5.740;2024-03-08T05:39:05;30.20;;;17.37;;
5052;SDS011;2545;50.892;5.740;2024-03-08T05:41:31;29.47;;;16.67;;
5052;SDS011;2545;50.892;5.740;2024-03-08T05:43:57;33.37;;;17.90;;
5052;SDS011;2545;50.892;5.740;2024-03-08T05:46:22;38.37;;;17.77;;
5052;SDS011;2545;50.892;5.740;2024-03-08T05:48:49;35.80;;;18.67;;
5052;SDS011;2545;50.892;5.740;2024-03-08T05:51:15;33.80;;;17.63;;
5052;SDS011;2545;50.892;5.740;2024-03-08T05:53:40;35.73;;;17.43;;
5052;SDS011;2545;50.892;5.740;2024-03-08T05:56:06;32.20;;;17.40;;
5052;SDS011;2545;50.892;5.740;2024-03-08T05:58:31;31.77;;;17.77;;
5052;SDS011;2545;50.892;5.740;2024-03-08T06:00:57;29.50;;;16.93;;
5052;SDS011;2545;50.892;5.740;2024-03-08T06:03:22;31.63;;;16.90;;
5052;SDS011;2545;50.892;5.740;2024-03-08T06:05:48;31.60;;;16.57;;
5052;SDS011;2545;50.892;5.740;2024-03-08T06:08:14;48.07;;;18.40;;
5052;SDS011;2545;50.892;5.740;2024-03-08T06:10:40;30.30;;;15.87;;
5052;SDS011;2545;50.892;5.740;2024-03-08T06:13:05;38.53;;;18.40;;
5052;SDS011;2545;50.892;5.740;2024-03-08T06:15:31;33.50;;;16.23;;
5052;SDS011;2545;50.892;5.740;2024-03-08T06:17:57;42.10;;;17.27;;
5052;SDS011;2545;50.892;5.740;2024-03-08T06:20:22;36.47;;;17.57;;
5052;SDS011;2545;50.892;5.740;2024-03-08T06:22:51;42.80;;;17.90;;
5052;SDS011;2545;50.892;5.740;2024-03-08T06:25:18;43.03;;;18.43;;
5052;SDS011;2545;50.892;5.740;2024-03-08T06:27:43;37.23;;;17.70;;
5052;SDS011;2545;50.892;5.740;2024-03-08T06:30:11;39.87;;;17.13;;
5052;SDS011;2545;50.892;5.740;2024-03-08T06:32:37;31.43;;;15.87;;
5052;SDS011;2545;50.892;5.740;2024-03-08T06:35:03;40.07;;;16.60;;
5052;SDS011;2545;50.892;5.740;2024-03-08T06:37:31;40.33;;;17.43;;
5052;SDS011;2545;50.892;5.740;2024-03-08T06:39:57;37.90;;;17.73;;
5052;SDS011;2545;50.892;5.740;2024-03-08T06:42:23;35.23;;;18.33;;
5052;SDS011;2545;50.892;5.740;2024-03-08T06:44:49;40.40;;;16.10;;
5052;SDS011;2545;50.892;5.740;2024-03-08T06:47:15;33.90;;;17.10;;
5052;SDS011;2545;50.892;5.740;2024-03-08T06:49:41;34.40;;;17.00;;
5052;SDS011;2545;50.892;5.740;2024-03-08T06:52:08;38.27;;;18.93;;
5052;SDS011;2545;50.892;5.740;2024-03-08T06:54:35;32.40;;;16.90;;
5052;SDS011;2545;50.892;5.740;2024-03-08T06:57:04;30.20;;;15.70;;
5052;SDS011;2545;50.892;5.740;2024-03-08T06:59:30;32.63;;;16.60;;
5052;SDS011;2545;50.892;5.740;2024-03-08T07:01:56;40.27;;;16.37;;
5052;SDS011;2545;50.892;5.740;2024-03-08T07:04:24;30.20;;;16.67;;
5052;SDS011;2545;50.892;5.740;2024-03-08T07:06:53;33.17;;;17.00;;
5052;SDS011;2545;50.892;5.740;2024-03-08T07:09:20;34.30;;;16.70;;
5052;SDS011;2545;50.892;5.740;2024-03-08T07:11:46;31.30;;;17.03;;
5052;SDS011;2545;50.892;5.740;2024-03-08T07:14:11;32.27;;;17.03;;
5052;SDS011;2545;50.892;5.740;2024-03-08T07:16:37;38.20;;;17.17;;
5052;SDS011;2545;50.892;5.740;2024-03-08T07:19:04;34.63;;;17.23;;
5052;SDS011;2545;50.892;5.740;2024-03-08T07:21:30;28.93;;;16.70;;
5052;SDS011;2545;50.892;5.740;2024-03-08T07:23:56;35.87;;;17.47;;
5052;SDS011;2545;50.892;5.740;2024-03-08T07:26:53;40.97;;;16.77;;
5052;SDS011;2545;50.892;5.740;2024-03-08T07:29:20;28.37;;;15.40;;
5052;SDS011;2545;50.892;5.740;2024-03-08T07:31:46;34.33;;;17.20;;
5052;SDS011;2545;50.892;5.740;2024-03-08T07:34:39;29.53;;;15.93;;
5052;SDS011;2545;50.892;5.740;2024-03-08T07:37:05;31.27;;;17.13;;
5052;SDS011;2545;50.892;5.740;2024-03-08T07:39:35;31.70;;;15.93;;
5052;SDS011;2545;50.892;5.740;2024-03-08T07:42:02;31.73;;;16.03;;
5052;SDS011;2545;50.892;5.740;2024-03-08T07:44:27;35.30;;;17.77;;
5052;SDS011;2545;50.892;5.740;2024-03-08T07:46:54;34.63;;;18.03;;
5052;SDS011;2545;50.892;5.740;2024-03-08T07:49:20;38.27;;;18.47;;
5052;SDS011;2545;50.892;5.740;2024-03-08T07:51:45;35.00;;;16.83;;
5052;SDS011;2545;50.892;5.740;2024-03-08T07:54:13;34.20;;;18.10;;
5052;SDS011;2545;50.892;5.740;2024-03-08T07:56:39;34.00;;;16.10;;
5052;SDS011;2545;50.892;5.740;2024-03-08T07:59:04;34.10;;;17.03;;
5052;SDS011;2545;50.892;5.740;2024-03-08T08:01:31;31.67;;;15.43;;
5052;SDS011;2545;50.892;5.740;2024-03-08T08:03:58;34.97;;;18.07;;
5052;SDS011;2545;50.892;5.740;2024-03-08T08:06:24;29.37;;;17.10;;
5052;SDS011;2545;50.892;5.740;2024-03-08T08:08:50;34.47;;;16.53;;
5052;SDS011;2545;50.892;5.740;2024-03-08T08:11:15;34.47;;;17.40;;
5052;SDS011;2545;50.892;5.740;2024-03-08T08:13:42;35.93;;;15.60;;
5052;SDS011;2545;50.892;5.740;2024-03-08T08:16:08;30.37;;;16.00;;
5052;SDS011;2545;50.892;5.740;2024-03-08T08:18:36;28.50;;;16.20;;
5052;SDS011;2545;50.892;5.740;2024-03-08T08:21:02;33.73;;;17.80;;
5052;SDS011;2545;50.892;5.740;2024-03-08T08:23:28;30.77;;;15.77;;
5052;SDS011;2545;50.892;5.740;2024-03-08T08:25:54;37.13;;;17.40;;
5052;SDS011;2545;50.892;5.740;2024-03-08T08:28:20;31.20;;;14.63;;
5052;SDS011;2545;50.892;5.740;2024-03-08T08:30:47;30.63;;;15.90;;
5052;SDS011;2545;50.892;5.740;2024-03-08T08:33:14;59.63;;;17.33;;
5052;SDS011;2545;50.892;5.740;2024-03-08T08:35:40;28.47;;;16.00;;
5052;SDS011;2545;50.892;5.740;2024-03-08T08:38:05;29.93;;;15.97;;
5052;SDS011;2545;50.892;5.740;2024-03-08T08:40:33;29.83;;;16.70;;
5052;SDS011;2545;50.892;5.740;2024-03-08T08:42:59;26.33;;;14.93;;
5052;SDS011;2545;50.892;5.740;2024-03-08T08:45:24;31.47;;;16.73;;
5052;SDS011;2545;50.892;5.740;2024-03-08T08:47:50;34.53;;;17.10;;
5052;SDS011;2545;50.892;5.740;2024-03-08T08:50:16;28.17;;;16.43;;
5052;SDS011;2545;50.892;5.740;2024-03-08T08:52:47;31.10;;;15.57;;
5052;SDS011;2545;50.892;5.740;2024-03-08T08:55:14;34.50;;;15.87;;
5052;SDS011;2545;50.892;5.740;2024-03-08T08:57:40;27.83;;;15.53;;
5052;SDS011;2545;50.892;5.740;2024-03-08T09:00:07;30.13;;;16.50;;
5052;SDS011;2545;50.892;5.740;2024-03-08T09:02:35;26.50;;;14.97;;
5052;SDS011;2545;50.892;5.740;2024-03-08T09:05:02;25.37;;;15.50;;
5052;SDS011;2545;50.892;5.740;2024-03-08T09:07:28;28.60;;;16.33;;
5052;SDS011;2545;50.892;5.740;2024-03-08T09:09:55;30.23;;;16.37;;
5052;SDS011;2545;50.892;5.740;2024-03-08T09:12:30;27.10;;;14.33;;
5052;SDS011;2545;50.892;5.740;2024-03-08T09:14:57;25.17;;;15.40;;
5052;SDS011;2545;50.892;5.740;2024-03-08T09:17:24;33.33;;;15.83;;
5052;SDS011;2545;50.892;5.740;2024-03-08T09:19:50;28.03;;;15.20;;
5052;SDS011;2545;50.892;5.740;2024-03-08T09:22:16;33.00;;;15.90;;
5052;SDS011;2545;50.892;5.740;2024-03-08T09:24:41;29.37;;;16.30;;
5052;SDS011;2545;50.892;5.740;2024-03-08T09:27:08;26.00;;;14.97;;
5052;SDS011;2545;50.892;5.740;2024-03-08T09:29:35;23.70;;;14.40;;
5052;SDS011;2545;50.892;5.740;2024-03-08T09:32:00;24.50;;;14.80;;
5052;SDS011;2545;50.892;5.740;2024-03-08T09:34:25;42.60;;;16.00;;
5052;SDS011;2545;50.892;5.740;2024-03-08T09:36:51;28.13;;;14.80;;
5052;SDS011;2545;50.892;5.740;2024-03-08T09:39:17;28.97;;;16.30;;
5052;SDS011;2545;50.892;5.740;2024-03-08T09:41:43;29.70;;;15.23;;
5052;SDS011;2545;50.892;5.740;2024-03-08T09:44:09;27.93;;;16.10;;
5052;SDS011;2545;50.892;5.740;2024-03-08T09:46:35;29.30;;;16.90;;
5052;SDS011;2545;50.892;5.740;2024-03-08T09:49:01;31.80;;;15.47;;
5052;SDS011;2545;50.892;5.740;2024-03-08T09:51:29;30.23;;;14.93;;
5052;SDS011;2545;50.892;5.740;2024-03-08T09:54:00;30.43;;;15.17;;
5052;SDS011;2545;50.892;5.740;2024-03-08T09:56:25;30.40;;;15.03;;
5052;SDS011;2545;50.892;5.740;2024-03-08T09:58:52;23.93;;;14.33;;
5052;SDS011;2545;50.892;5.740;2024-03-08T10:01:38;26.87;;;15.13;;
5052;SDS011;2545;50.892;5.740;2024-03-08T10:04:04;24.57;;;15.20;;
5052;SDS011;2545;50.892;5.740;2024-03-08T10:06:29;24.70;;;15.00;;
5052;SDS011;2545;50.892;5.740;2024-03-08T10:08:56;30.87;;;16.17;;
5052;SDS011;2545;50.892;5.740;2024-03-08T10:11:22;24.63;;;13.40;;
5052;SDS011;2545;50.892;5.740;2024-03-08T10:13:48;19.53;;;11.93;;
5052;SDS011;2545;50.892;5.740;2024-03-08T10:16:17;27.37;;;14.90;;
5052;SDS011;2545;50.892;5.740;2024-03-08T10:18:45;23.57;;;13.90;;
5052;SDS011;2545;50.892;5.740;2024-03-08T10:21:12;28.70;;;15.83;;
5052;SDS011;2545;50.892;5.740;2024-03-08T10:23:40;26.10;;;15.17;;
5052;SDS011;2545;50.892;5.740;2024-03-08T10:26:10;29.13;;;15.60;;
5052;SDS011;2545;50.892;5.740;2024-03-08T10:28:39;24.03;;;14.53;;
5052;SDS011;2545;50.892;5.740;2024-03-08T10:31:09;25.63;;;16.13;;
5052;SDS011;2545;50.892;5.740;2024-03-08T10:33:35;24.27;;;15.77;;
5052;SDS011;2545;50.892;5.740;2024-03-08T10:36:00;23.20;;;14.57;;
5052;SDS011;2545;50.892;5.740;2024-03-08T10:38:26;28.33;;;15.07;;
5052;SDS011;2545;50.892;5.740;2024-03-08T10:40:57;26.87;;;14.87;;
5052;SDS011;2545;50.892;5.740;2024-03-08T10:43:24;22.70;;;14.73;;
5052;SDS011;2545;50.892;5.740;2024-03-08T10:46:09;25.27;;;16.47;;
5052;SDS011;2545;50.892;5.740;2024-03-08T10:48:41;23.47;;;15.80;;
5052;SDS011;2545;50.892;5.740;2024-03-08T10:51:09;25.37;;;15.80;;
5052;SDS011;2545;50.892;5.740;2024-03-08T10:53:36;23.07;;;15.10;;
5052;SDS011;2545;50.892;5.740;2024-03-08T10:56:06;24.50;;;14.80;;
5052;SDS011;2545;50.892;5.740;2024-03-08T10:58:32;27.70;;;15.93;;
5052;SDS011;2545;50.892;5.740;2024-03-08T11:01:02;23.23;;;14.10;;
5052;SDS011;2545;50.892;5.740;2024-03-08T11:06:19;22.13;;;15.90;;
5052;SDS011;2545;50.892;5.740;2024-03-08T11:14:55;25.00;;;14.40;;
5052;SDS011;2545;50.892;5.740;2024-03-08T11:17:49;24.13;;;15.27;;
5052;SDS011;2545;50.892;5.740;2024-03-08T11:20:16;23.80;;;16.00;;
5052;SDS011;2545;50.892;5.740;2024-03-08T11:22:55;21.93;;;14.47;;
5052;SDS011;2545;50.892;5.740;2024-03-08T11:25:38;21.77;;;14.67;;
5052;SDS011;2545;50.892;5.740;2024-03-08T11:28:09;25.33;;;15.13;;
5052;SDS011;2545;50.892;5.740;2024-03-08T11:30:41;21.40;;;13.73;;
5052;SDS011;2545;50.892;5.740;2024-03-08T11:33:10;24.50;;;15.27;;
5052;SDS011;2545;50.892;5.740;2024-03-08T11:35:37;23.13;;;14.03;;
5052;SDS011;2545;50.892;5.740;2024-03-08T11:38:03;19.50;;;13.70;;
5052;SDS011;2545;50.892;5.740;2024-03-08T11:40:29;20.70;;;14.40;;
5052;SDS011;2545;50.892;5.740;2024-03-08T11:42:58;21.00;;;14.40;;
5052;SDS011;2545;50.892;5.740;2024-03-08T11:45:24;20.90;;;13.30;;
5052;SDS011;2545;50.892;5.740;2024-03-08T11:47:50;21.53;;;14.13;;
5052;SDS011;2545;50.892;5.740;2024-03-08T11:50:18;21.57;;;13.60;;
5052;SDS011;2545;50.892;5.740;2024-03-08T11:52:46;20.60;;;14.10;;
5052;SDS011;2545;50.892;5.740;2024-03-08T11:55:13;20.00;;;13.50;;
5052;SDS011;2545;50.892;5.740;2024-03-08T11:57:42;18.20;;;12.83;;
5052;SDS011;2545;50.892;5.740;2024-03-08T12:00:14;18.37;;;13.13;;
5052;SDS011;2545;50.892;5.740;2024-03-08T12:02:46;22.20;;;14.80;;
5052;SDS011;2545;50.892;5.740;2024-03-08T12:05:27;20.50;;;13.30;;
5052;SDS011;2545;50.892;5.740;2024-03-08T12:07:58;30.77;;;13.80;;
5052;SDS011;2545;50.892;5.740;2024-03-08T12:10:25;20.60;;;13.90;;
5052;SDS011;2545;50.892;5.740;2024-03-08T12:12:51;22.07;;;14.00;;
5052;SDS011;2545;50.892;5.740;2024-03-08T12:15:21;34.23;;;14.43;;
5052;SDS011;2545;50.892;5.740;2024-03-08T12:17:52;22.43;;;13.80;;
5052;SDS011;2545;50.892;5.740;2024-03-08T12:20:26;19.27;;;14.60;;
5052;SDS011;2545;50.892;5.740;2024-03-08T12:22:56;23.63;;;14.23;;
5052;SDS011;2545;50.892;5.740;2024-03-08T12:25:33;21.20;;;13.70;;
5052;SDS011;2545;50.892;5.740;2024-03-08T12:28:11;19.73;;;13.67;;
5052;SDS011;2545;50.892;5.740;2024-03-08T12:30:49;20.93;;;13.50;;
5052;SDS011;2545;50.892;5.740;2024-03-08T12:33:17;20.97;;;14.30;;
5052;SDS011;2545;50.892;5.740;2024-03-08T12:35:54;21.13;;;13.87;;
5052;SDS011;2545;50.892;5.740;2024-03-08T12:38:21;21.37;;;14.60;;
5052;SDS011;2545;50.892;5.740;2024-03-08T12:40:50;25.90;;;15.50;;
5052;SDS011;2545;50.892;5.740;2024-03-08T12:43:19;20.33;;;13.00;;
5052;SDS011;2545;50.892;5.740;2024-03-08T12:45:45;23.17;;;14.80;;
5052;SDS011;2545;50.892;5.740;2024-03-08T12:48:15;21.63;;;13.63;;
5052;SDS011;2545;50.892;5.740;2024-03-08T12:50:40;22.97;;;14.07;;
5052;SDS011;2545;50.892;5.740;2024-03-08T12:53:09;24.27;;;13.77;;
5052;SDS011;2545;50.892;5.740;2024-03-08T12:55:34;21.37;;;13.37;;
5052;SDS011;2545;50.892;5.740;2024-03-08T12:58:00;23.07;;;13.83;;
5052;SDS011;2545;50.892;5.740;2024-03-08T13:00:25;23.90;;;13.57;;
5052;SDS011;2545;50.892;5.740;2024-03-08T13:02:53;25.20;;;15.07;;
5052;SDS011;2545;50.892;5.740;2024-03-08T13:05:19;23.77;;;13.93;;
5052;SDS011;2545;50.892;5.740;2024-03-08T13:07:45;25.07;;;13.53;;
5052;SDS011;2545;50.892;5.740;2024-03-08T13:10:14;24.63;;;13.07;;
5052;SDS011;2545;50.892;5.740;2024-03-08T13:12:43;27.30;;;14.63;;
5052;SDS011;2545;50.892;5.740;2024-03-08T13:15:09;24.63;;;13.93;;
5052;SDS011;2545;50.892;5.740;2024-03-08T13:17:48;26.03;;;13.50;;
5052;SDS011;2545;50.892;5.740;2024-03-08T13:20:15;23.70;;;13.33;;
5052;SDS011;2545;50.892;5.740;2024-03-08T13:22:47;31.33;;;13.07;;
5052;SDS011;2545;50.892;5.740;2024-03-08T13:25:13;25.07;;;13.70;;
5052;SDS011;2545;50.892;5.740;2024-03-08T13:27:42;24.50;;;13.40;;
5052;SDS011;2545;50.892;5.740;2024-03-08T13:30:08;28.23;;;15.60;;
5052;SDS011;2545;50.892;5.740;2024-03-08T13:32:39;27.60;;;13.40;;
5052;SDS011;2545;50.892;5.740;2024-03-08T13:35:08;21.17;;;11.83;;
5052;SDS011;2545;50.892;5.740;2024-03-08T13:37:39;27.20;;;13.20;;
5052;SDS011;2545;50.892;5.740;2024-03-08T13:40:05;26.03;;;13.63;;
5052;SDS011;2545;50.892;5.740;2024-03-08T13:42:31;31.87;;;13.50;;
5052;SDS011;2545;50.892;5.740;2024-03-08T13:44:57;24.30;;;13.20;;
5052;SDS011;2545;50.892;5.740;2024-03-08T13:47:23;27.57;;;12.77;;
5052;SDS011;2545;50.892;5.740;2024-03-08T13:49:50;25.43;;;12.70;;
5052;SDS011;2545;50.892;5.740;2024-03-08T13:52:15;24.93;;;12.60;;
5052;SDS011;2545;50.892;5.740;2024-03-08T13:54:41;25.00;;;12.20;;
5052;SDS011;2545;50.892;5.740;2024-03-08T13:57:07;23.43;;;12.77;;
5052;SDS011;2545;50.892;5.740;2024-03-08T13:59:36;22.73;;;12.13;;
5052;SDS011;2545;50.892;5.740;2024-03-08T14:02:03;26.60;;;12.13;;
5052;SDS011;2545;50.892;5.740;2024-03-08T14:04:29;25.23;;;13.27;;
5052;SDS011;2545;50.892;5.740;2024-03-08T14:06:54;27.67;;;14.07;;
5052;SDS011;2545;50.892;5.740;2024-03-08T14:09:25;25.20;;;13.90;;
5052;SDS011;2545;50.892;5.740;2024-03-08T14:11:54;26.53;;;14.10;;
5052;SDS011;2545;50.892;5.740;2024-03-08T14:14:20;25.77;;;12.27;;
5052;SDS011;2545;50.892;5.740;2024-03-08T14:16:48;30.70;;;13.23;;
5052;SDS011;2545;50.892;5.740;2024-03-08T14:19:19;27.40;;;12.77;;
5052;SDS011;2545;50.892;5.740;2024-03-08T14:21:46;29.03;;;13.80;;
5052;SDS011;2545;50.892;5.740;2024-03-08T14:24:13;26.10;;;13.57;;
5052;SDS011;2545;50.892;5.740;2024-03-08T14:26:42;28.30;;;13.27;;
5052;SDS011;2545;50.892;5.740;2024-03-08T14:29:08;31.23;;;12.80;;
5052;SDS011;2545;50.892;5.740;2024-03-08T14:31:35;27.10;;;12.37;;
5052;SDS011;2545;50.892;5.740;2024-03-08T14:34:01;26.80;;;12.87;;
5052;SDS011;2545;50.892;5.740;2024-03-08T14:36:28;25.47;;;13.57;;
5052;SDS011;2545;50.892;5.740;2024-03-08T14:38:56;22.20;;;11.57;;
5052;SDS011;2545;50.892;5.740;2024-03-08T14:41:24;30.57;;;11.80;;
5052;SDS011;2545;50.892;5.740;2024-03-08T14:43:50;25.43;;;12.87;;
5052;SDS011;2545;50.892;5.740;2024-03-08T14:46:17;27.20;;;12.00;;
5052;SDS011;2545;50.892;5.740;2024-03-08T14:48:52;26.63;;;11.80;;
5052;SDS011;2545;50.892;5.740;2024-03-08T14:51:21;22.70;;;11.17;;
5052;SDS011;2545;50.892;5.740;2024-03-08T14:53:51;23.87;;;11.23;;
5052;SDS011;2545;50.892;5.740;2024-03-08T14:56:19;23.73;;;11.30;;
5052;SDS011;2545;50.892;5.740;2024-03-08T14:58:45;35.53;;;12.10;;